Aérodrome :
LOGIN :

S'inscrire | Disclaimer

   EN    FR    IT 

 










Légende :    VFR   VFR Marginal   IFR   IFR Intensif   IFR Très Intensif
Visi : 
Plafond : 
>= 8 km
>= 3000ft
5 à 8 km
1000 à 3000 ft
1500m à 5 km
500 à 1000 ft
800 à 1500m
200 à 500 ft
< 800m
< 200 ft
Symboles :   Orages  Brouillard  Fortes neiges  Fortes précipitations  Vent > 20 kt
SIGMETs :   Divers  Orages  Givrage  Turbulence  Onde Orograph.  Cendres Volcan.







- Altitude de l'aérodrome : 1411 ft
- Code IATA : ZHI


LSZG - Grenchen

DERNIER METAR :
  • 181920Z AUTO VRB03KT CAVOK 20/12 Q1023

METARs EXPIRÉS :
  • 181850Z 35007KT CAVOK 21/11 Q1023 NOSIG
  • 181820Z AUTO 33007KT CAVOK 22/11 Q1023
  • 181750Z 34008KT 9999 FEW060 23/11 Q1023 NOSIG
  • 181720Z AUTO 34009KT CAVOK 23/11 Q1022
  • 181650Z 34009KT 9999 FEW060 23/11 Q1022 NOSIG
  • 181620Z 34008KT 310V010 9999 SCT060 25/11 Q1023 NOSIG

TAF TAF LSZG
Valide du 18 à 15h jusqu'au 19 à 00h UTC


181425Z 1815/1824 VRB03KT 9999 SCT052
TEMPO 1815/1824 CAVOK
ATIS : +41 32 396 96 33
Pas de NOTAMs connus pour ce terrain.



MET'MAP, la Météo Aéronautique d'un coup d'oeil ! - Copyright ORBIFLY Décembre 2007 - Disclaimer

ORBIFLY MET'MAP TEAM :

Programmation & Développement : Alexandra Zaïnal
Conception & Développement : Baudouin d'Aumeries
Co-Programmation & Développement : Marc-Olivier Méhu
Soutien technique & logistique : Manuel Goepfert

Contact : metmap@orbifly.com




SOURCES & CREDITS :

   NOAA